Time;durP1;ratioP1;P1;durP2;ratioP2;P2;SDS_P1;SDS_P2;PMS_P1;PMS_P2;Temp;Humidity;BMP_temperature;BMP_pressure;BME280_temperature;BME280_humidity;BME280_pressure;Samples;Min_cycle;Max_cycle;Signal;HPM_P1;HPM_P2
2022/03/22 00:01:44;;;;;;;12.17;9.37;;;;;;;4.11;51.48;96883.06;6101727;23;20243;-78
2022/03/22 00:04:10;;;;;;;16.63;10.47;;;;;;;4.08;51.76;96881.50;6102195;23;20179;-77
2022/03/22 00:06:35;;;;;;;14.50;9.60;;;;;;;4.02;52.24;96889.50;6102285;23;20162;-77
2022/03/22 00:09:01;;;;;;;14.30;10.10;;;;;;;3.98;52.18;96888.00;6100745;23;20183;-77
2022/03/22 00:11:26;;;;;;;12.00;9.17;;;;;;;3.87;52.60;96885.09;6102003;23;20903;-78
2022/03/22 00:13:51;;;;;;;15.83;9.73;;;;;;;3.81;52.63;96881.09;6103959;23;20641;-78
2022/03/22 00:16:17;;;;;;;12.70;10.23;;;;;;;3.76;53.30;96887.34;6104773;23;20155;-77
2022/03/22 00:18:42;;;;;;;13.67;9.80;;;;;;;3.88;52.77;96891.88;6130317;23;20144;-78
2022/03/22 00:21:07;;;;;;;12.93;9.77;;;;;;;3.67;53.22;96889.44;6079877;23;20191;-78
2022/03/22 00:23:34;;;;;;;15.20;9.83;;;;;;;3.61;53.43;96889.72;6104442;23;20155;-77
2022/03/22 00:26:00;;;;;;;13.93;10.13;;;;;;;3.57;53.77;96884.81;6104180;23;20527;-78
2022/03/22 00:28:25;;;;;;;16.00;9.80;;;;;;;3.50;53.73;96884.28;6104683;23;20207;-78
2022/03/22 00:30:50;;;;;;;14.73;9.70;;;;;;;3.48;54.09;96883.53;6104491;23;20491;-77
2022/03/22 00:33:16;;;;;;;15.13;10.27;;;;;;;3.37;54.59;96888.34;6103726;23;20159;-78
2022/03/22 00:35:42;;;;;;;14.27;9.90;;;;;;;3.34;54.13;96878.19;6128561;23;20563;-77
2022/03/22 00:38:12;;;;;;;14.60;9.83;;;;;;;3.42;53.95;96879.50;6104997;23;20192;-77
2022/03/22 00:40:38;;;;;;;12.50;10.00;;;;;;;3.65;52.97;96881.00;6128797;23;20148;-77
2022/03/22 00:43:03;;;;;;;15.77;10.13;;;;;;;3.54;53.52;96875.53;6102558;23;20163;-77
2022/03/22 00:45:33;;;;;;;13.27;9.83;;;;;;;3.61;53.45;96879.47;6129618;23;20179;-77
2022/03/22 00:48:00;;;;;;;14.57;9.67;;;;;;;3.50;54.17;96884.28;6130638;23;20151;-78
2022/03/22 00:50:28;;;;;;;14.87;10.20;;;;;;;3.29;54.48;96880.97;6077849;23;20162;-77
2022/03/22 00:52:54;;;;;;;12.40;8.97;;;;;;;3.18;55.06;96872.94;6124750;23;20164;-77
2022/03/22 00:55:23;;;;;;;15.23;10.27;;;;;;;3.11;55.52;96869.00;6100882;23;20188;-78
2022/03/22 00:57:49;;;;;;;13.93;10.23;;;;;;;3.18;55.02;96869.50;6102632;23;20156;-77
2022/03/22 01:00:14;;;;;;;14.77;9.77;;;;;;;3.16;55.56;96864.47;6101803;23;20279;-77
2022/03/22 01:02:49;;;;;;;14.27;9.60;;;;;;;3.23;55.10;96865.00;6125443;23;20222;-78
2022/03/22 01:05:15;;;;;;;11.40;9.33;;;;;;;3.28;55.04;96866.47;6077873;23;20286;-78
2022/03/22 01:07:41;;;;;;;16.10;9.53;;;;;;;3.00;55.36;96861.75;6100356;23;20182;-77
2022/03/22 01:10:09;;;;;;;14.90;9.83;;;;;;;2.92;55.65;96865.59;6126369;23;20553;-78
2022/03/22 01:12:36;;;;;;;14.90;10.03;;;;;;;2.90;56.09;96865.63;6127176;23;20153;-78
2022/03/22 01:15:10;;;;;;;15.40;9.97;;;;;;;2.89;56.41;96866.53;6101268;23;20338;-77
2022/03/22 01:17:36;;;;;;;16.17;10.80;;;;;;;2.80;56.61;96864.38;6078262;23;20151;-78
2022/03/22 01:20:02;;;;;;;14.50;10.23;;;;;;;2.78;56.83;96861.06;6077761;23;20156;-77
2022/03/22 01:22:27;;;;;;;15.60;10.20;;;;;;;2.73;56.93;96861.25;6076305;23;20161;-77
2022/03/22 01:24:53;;;;;;;15.33;9.60;;;;;;;2.73;57.26;96863.81;6099864;23;20207;-76
2022/03/22 01:27:22;;;;;;;12.63;9.97;;;;;;;2.63;57.82;96856.59;6075568;23;20187;-77
2022/03/22 01:29:51;;;;;;;16.33;10.57;;;;;;;2.61;57.77;96858.41;6076242;23;20261;-78
2022/03/22 01:32:16;;;;;;;17.03;10.07;;;;;;;2.66;57.56;96856.50;6099271;23;20153;-78
2022/03/22 01:34:44;;;;;;;13.77;9.90;;;;;;;2.64;58.08;96848.00;6100279;23;20180;-77
2022/03/22 01:37:10;;;;;;;15.80;9.87;;;;;;;2.60;57.74;96852.44;6076684;23;20246;-78
2022/03/22 01:39:36;;;;;;;14.70;10.33;;;;;;;2.45;58.28;96850.53;6101588;23;20251;-77
2022/03/22 01:42:01;;;;;;;13.97;10.33;;;;;;;2.47;58.49;96851.31;6101267;23;20152;-77
2022/03/22 01:44:28;;;;;;;17.43;10.20;;;;;;;2.38;59.02;96849.97;6093403;23;20182;-77
2022/03/22 01:46:56;;;;;;;18.67;11.70;;;;;;;2.30;58.99;96839.25;6095384;23;20159;-77
2022/03/22 01:49:22;;;;;;;13.40;9.83;;;;;;;2.32;59.38;96842.56;6118604;23;20235;-76
2022/03/22 01:51:48;;;;;;;14.40;9.67;;;;;;;2.33;59.47;96840.81;6107104;23;20154;-78
2022/03/22 01:54:15;;;;;;;14.47;10.33;;;;;;;2.25;59.65;96831.72;6078130;23;20186;-78
2022/03/22 01:56:40;;;;;;;17.60;9.90;;;;;;;2.28;59.35;96836.72;6126316;23;20149;-78
2022/03/22 01:59:06;;;;;;;16.87;10.83;;;;;;;2.26;59.04;96827.44;6102098;23;20295;-78
2022/03/22 02:07:17;;;;;;;14.93;10.27;;;;;;;2.15;59.85;96822.78;6075394;23;20540;-77
2022/03/22 02:09:43;;;;;;;15.70;10.97;;;;;;;2.16;60.31;96813.34;6077610;23;20196;-78
2022/03/22 02:12:09;;;;;;;13.17;9.70;;;;;;;2.18;60.19;96825.19;6124418;23;20148;-77
2022/03/22 02:14:35;;;;;;;16.97;11.37;;;;;;;2.20;59.94;96813.13;6075928;23;20547;-78
2022/03/22 02:17:06;;;;;;;14.57;10.90;;;;;;;2.13;60.31;96810.94;6099596;23;20156;-77
2022/03/22 02:19:32;;;;;;;16.20;10.77;;;;;;;2.08;60.75;96811.09;6075704;23;20231;-77
2022/03/22 02:22:01;;;;;;;15.30;10.53;;;;;;;2.17;60.97;96807.31;6074649;23;20159;-77
2022/03/22 02:24:27;;;;;;;13.77;10.07;;;;;;;2.05;61.66;96815.53;6075059;23;20184;-77
2022/03/22 02:26:52;;;;;;;15.67;10.90;;;;;;;1.91;61.98;96816.09;6075714;23;20259;-78
2022/03/22 02:29:18;;;;;;;15.00;10.40;;;;;;;1.83;62.48;96813.03;6099481;23;20242;-76
2022/03/22 02:31:43;;;;;;;15.60;10.07;;;;;;;1.75;62.68;96813.34;6098412;23;20179;-78
2022/03/22 02:34:08;;;;;;;15.87;11.27;;;;;;;1.68;63.24;96811.94;6099461;23;20182;-78
2022/03/22 02:36:34;;;;;;;16.80;10.87;;;;;;;1.65;63.13;96819.75;6074831;23;20225;-77
2022/03/22 02:38:59;;;;;;;17.57;10.43;;;;;;;1.61;63.53;96818.22;6125022;23;20493;-77
2022/03/22 02:41:25;;;;;;;17.03;10.80;;;;;;;1.63;63.13;96813.84;6098525;23;20156;-77
2022/03/22 02:43:50;;;;;;;16.27;10.73;;;;;;;1.62;63.00;96810.47;6098893;23;20227;-77
2022/03/22 02:46:16;;;;;;;14.47;9.90;;;;;;;1.66;62.65;96814.56;6074939;23;20156;-77
2022/03/22 02:48:42;;;;;;;16.37;10.67;;;;;;;1.61;62.76;96820.78;6099180;23;20644;-77
2022/03/22 02:51:08;;;;;;;15.80;10.43;;;;;;;1.56;62.79;96822.66;6098459;23;20235;-77
2022/03/22 02:53:33;;;;;;;14.17;10.63;;;;;;;1.58;63.15;96823.44;6098847;23;20154;-77
2022/03/22 02:55:59;;;;;;;13.90;10.07;;;;;;;1.57;62.79;96827.72;6098951;23;20194;-78
2022/03/22 02:58:24;;;;;;;15.93;11.07;;;;;;;1.58;63.01;96826.00;6123444;23;20163;-77
2022/03/22 03:00:49;;;;;;;16.10;11.27;;;;;;;1.56;63.29;96826.06;6125289;23;20590;-77
2022/03/22 03:03:14;;;;;;;18.93;11.37;;;;;;;1.57;63.03;96829.47;6098665;23;20144;-76
2022/03/22 03:05:40;;;;;;;16.87;11.43;;;;;;;1.57;63.05;96829.47;6101595;23;20179;-78
2022/03/22 03:08:06;;;;;;;18.93;11.20;;;;;;;1.56;63.29;96828.63;6101875;23;20191;-77
2022/03/22 03:10:32;;;;;;;19.13;10.93;;;;;;;1.52;63.26;96829.66;6077458;23;20602;-76
2022/03/22 03:13:03;;;;;;;13.50;10.20;;;;;;;1.58;62.70;96836.25;6073677;23;20159;-77
2022/03/22 03:15:29;;;;;;;14.77;10.77;;;;;;;1.63;61.94;96831.78;6098756;23;20184;-78
2022/03/22 03:17:54;;;;;;;14.80;10.30;;;;;;;1.60;61.99;96831.91;6074525;23;20511;-77
2022/03/22 03:20:19;;;;;;;15.60;11.33;;;;;;;1.60;62.29;96834.47;6124709;23;20186;-76
2022/03/22 03:22:45;;;;;;;16.93;11.27;;;;;;;1.56;62.64;96830.34;6124077;23;20187;-77
2022/03/22 03:25:10;;;;;;;14.77;10.77;;;;;;;1.55;63.10;96838.94;6074646;23;20180;-76
2022/03/22 03:27:36;;;;;;;15.17;11.27;;;;;;;1.56;62.71;96835.47;6098393;23;20155;-75
2022/03/22 03:30:04;;;;;;;16.47;11.37;;;;;;;1.52;63.25;96837.34;6098508;23;20183;-77
2022/03/22 03:32:29;;;;;;;15.40;11.13;;;;;;;1.45;63.42;96842.75;6098316;23;20242;-77
2022/03/22 03:34:55;;;;;;;14.70;11.10;;;;;;;1.55;63.53;96833.81;6075268;23;20215;-77
2022/03/22 03:37:23;;;;;;;17.80;10.93;;;;;;;1.50;63.81;96839.09;6098470;23;20159;-77
2022/03/22 03:39:48;;;;;;;18.80;12.20;;;;;;;1.44;63.74;96838.53;6099410;23;20227;-77
2022/03/22 03:42:13;;;;;;;14.53;11.00;;;;;;;1.41;64.12;96848.00;6097999;23;20246;-76
2022/03/22 03:47:23;;;;;;;15.13;11.43;;;;;;;1.51;63.29;96839.97;6123599;23;20203;-77
2022/03/22 03:49:50;;;;;;;15.87;10.50;;;;;;;1.59;62.74;96837.91;6100525;23;20516;-78
2022/03/22 03:52:18;;;;;;;17.83;11.83;;;;;;;1.54;62.60;96844.94;6075098;23;20180;-77
2022/03/22 03:54:44;;;;;;;14.57;10.67;;;;;;;1.51;62.57;96855.31;6098866;23;20187;-77
2022/03/22 03:57:09;;;;;;;17.50;11.43;;;;;;;1.48;62.74;96852.88;6074804;23;20156;-77
2022/03/22 03:59:36;;;;;;;16.93;11.63;;;;;;;1.50;62.62;96856.19;6098473;23;20444;-76
2022/03/22 04:02:03;;;;;;;16.30;10.93;;;;;;;1.65;61.79;96850.47;6098445;23;20156;-76
2022/03/22 04:04:28;;;;;;;16.63;10.97;;;;;;;1.58;62.32;96856.72;6098667;23;20180;-76
2022/03/22 04:06:54;;;;;;;17.27;12.10;;;;;;;1.49;62.39;96859.66;6096382;23;20192;-75
2022/03/22 04:09:19;;;;;;;16.90;11.50;;;;;;;1.44;62.85;96859.00;6124268;23;20227;-76
2022/03/22 04:11:45;;;;;;;16.23;11.30;;;;;;;1.51;62.75;96857.88;6098383;23;20629;-77
2022/03/22 04:14:11;;;;;;;13.97;11.07;;;;;;;1.40;62.99;96856.56;6124444;23;20172;-79
2022/03/22 04:16:36;;;;;;;16.87;11.60;;;;;;;1.39;63.40;96859.19;6122726;23;20152;-77
2022/03/22 04:19:02;;;;;;;16.33;10.87;;;;;;;1.30;63.58;96859.53;6100011;23;20206;-77
2022/03/22 04:21:28;;;;;;;14.43;10.90;;;;;;;1.37;63.69;96858.41;6124271;23;20636;-77
2022/03/22 04:23:53;;;;;;;16.40;12.33;;;;;;;1.30;63.74;96855.25;6100444;23;20164;-77
2022/03/22 04:26:18;;;;;;;19.47;12.33;;;;;;;1.28;63.67;96851.09;6076123;23;20318;-77
2022/03/22 04:34:11;;;;;;;16.97;10.77;;;;;;;1.53;61.71;96853.53;6104698;23;20198;-77
2022/03/22 04:36:37;;;;;;;21.63;12.27;;;;;;;1.64;61.63;96844.50;6100528;23;20603;-78
2022/03/22 04:39:02;;;;;;;16.07;10.83;;;;;;;1.73;61.17;96850.16;6100186;23;20668;-77
2022/03/22 04:41:28;;;;;;;18.70;10.90;;;;;;;1.76;60.73;96848.28;6099374;23;20239;-77
2022/03/22 04:43:53;;;;;;;15.10;10.60;;;;;;;1.82;60.78;96855.75;6100376;23;20152;-77
2022/03/22 04:46:18;;;;;;;15.13;11.37;;;;;;;1.93;60.43;96847.63;6124862;23;20160;-77
2022/03/22 04:48:45;;;;;;;19.73;11.57;;;;;;;1.92;60.63;96844.22;6100032;23;20258;-77
2022/03/22 04:56:46;;;;;;;17.73;10.70;;;;;;;1.91;60.52;96852.81;6103700;23;20150;-77
2022/03/22 04:59:19;;;;;;;13.83;10.07;;;;;;;1.88;60.56;96847.81;6100415;23;20149;-77
2022/03/22 05:01:45;;;;;;;15.57;11.27;;;;;;;1.83;61.02;96849.72;6077698;23;20152;-78
2022/03/22 05:04:11;;;;;;;15.37;11.30;;;;;;;1.79;61.74;96850.75;6076633;23;20615;-77
2022/03/22 05:06:39;;;;;;;18.07;11.80;;;;;;;1.66;62.71;96850.41;6102016;23;20167;-78
2022/03/22 05:09:04;;;;;;;17.17;10.67;;;;;;;1.64;62.83;96859.03;6079040;23;20733;-77
2022/03/22 05:11:32;;;;;;;16.73;11.70;;;;;;;1.70;63.26;96851.97;6101451;23;20152;-77
2022/03/22 05:13:58;;;;;;;16.00;10.90;;;;;;;1.68;63.44;96848.63;6100155;23;20160;-77
2022/03/22 05:16:24;;;;;;;18.73;11.37;;;;;;;1.61;63.86;96856.63;6076733;23;20239;-78
2022/03/22 05:18:50;;;;;;;15.97;10.97;;;;;;;1.51;63.95;96858.72;6100411;23;20184;-78
2022/03/22 05:21:17;;;;;;;19.10;11.80;;;;;;;1.47;64.58;96857.16;6099306;23;20630;-78
2022/03/22 05:23:43;;;;;;;17.13;10.97;;;;;;;1.42;65.16;96865.03;6100299;23;20610;-77
2022/03/22 05:26:08;;;;;;;17.97;11.90;;;;;;;1.36;65.59;96857.56;6100904;23;20168;-79
2022/03/22 05:28:34;;;;;;;18.80;12.23;;;;;;;1.37;65.60;96861.81;6076365;23;20183;-78
2022/03/22 05:30:59;;;;;;;14.67;10.83;;;;;;;1.40;65.67;96860.84;6100263;23;20187;-78
2022/03/22 05:33:24;;;;;;;17.20;11.50;;;;;;;1.43;65.74;96865.84;6099401;23;20160;-78
2022/03/22 05:35:50;;;;;;;16.73;11.77;;;;;;;1.46;65.94;96857.22;6100390;23;20529;-78
2022/03/22 05:38:15;;;;;;;14.30;10.47;;;;;;;1.54;65.50;96862.88;6076074;23;20156;-78
2022/03/22 05:40:41;;;;;;;17.80;11.70;;;;;;;1.60;65.03;96866.03;6075056;23;20524;-78
2022/03/22 05:43:07;;;;;;;17.27;10.40;;;;;;;1.76;64.42;96873.91;6099794;23;20168;-78
2022/03/22 05:45:32;;;;;;;15.80;11.23;;;;;;;1.81;64.13;96869.44;6099967;23;20172;-78
2022/03/22 05:48:00;;;;;;;16.57;11.97;;;;;;;1.85;63.91;96868.41;6100705;23;20152;-78
2022/03/22 05:50:28;;;;;;;16.57;11.13;;;;;;;1.95;64.11;96872.28;6077749;23;20167;-78
2022/03/22 05:52:54;;;;;;;15.00;10.67;;;;;;;2.08;63.44;96864.91;6124174;23;20215;-79
2022/03/22 05:55:19;;;;;;;16.40;10.77;;;;;;;2.17;62.74;96868.84;6126698;23;20199;-80
2022/03/22 05:57:45;;;;;;;15.83;11.07;;;;;;;2.23;62.62;96869.41;6076867;23;20538;-78
2022/03/22 06:00:11;;;;;;;18.93;11.23;;;;;;;2.39;62.03;96871.34;6076799;23;20691;-77
2022/03/22 06:02:38;;;;;;;14.57;10.70;;;;;;;2.49;61.59;96864.91;6075173;23;20171;-80
2022/03/22 06:05:05;;;;;;;17.13;11.70;;;;;;;2.62;61.11;96873.72;6100465;23;20187;-81
2022/03/22 06:07:31;;;;;;;15.60;10.80;;;;;;;2.72;60.57;96871.59;6079577;23;20164;-78
2022/03/22 06:09:57;;;;;;;18.23;11.47;;;;;;;2.74;61.05;96870.63;6099634;23;20657;-79
2022/03/22 06:12:22;;;;;;;18.10;11.17;;;;;;;2.77;60.68;96865.38;6124761;23;20144;-79
2022/03/22 06:14:47;;;;;;;16.37;11.17;;;;;;;2.78;61.79;96869.59;6100049;23;20509;-79
2022/03/22 06:17:13;;;;;;;19.30;11.43;;;;;;;2.83;61.92;96859.97;6111195;23;20161;-77
2022/03/22 06:19:38;;;;;;;16.77;10.70;;;;;;;2.98;61.45;96862.72;6138081;23;20216;-78
2022/03/22 06:22:04;;;;;;;17.20;11.83;;;;;;;3.00;61.25;96866.88;6126468;23;20152;-79
2022/03/22 06:24:29;;;;;;;20.23;11.77;;;;;;;3.01;61.90;96862.63;6124508;23;20188;-76
2022/03/22 06:26:54;;;;;;;15.60;10.93;;;;;;;3.17;61.37;96865.28;6109009;23;20234;-78
2022/03/22 06:29:19;;;;;;;15.33;10.60;;;;;;;3.33;60.64;96872.22;6078865;23;20184;-79
2022/03/22 06:31:45;;;;;;;18.30;11.53;;;;;;;3.46;59.76;96867.34;6078448;23;20168;-79
2022/03/22 06:34:10;;;;;;;16.77;11.73;;;;;;;3.60;59.39;96875.22;6081564;23;20187;-78
2022/03/22 06:36:35;;;;;;;14.73;10.80;;;;;;;3.72;58.75;96876.41;6102449;23;20154;-78
2022/03/22 06:39:02;;;;;;;13.00;10.40;;;;;;;3.92;57.29;96875.44;6101033;23;20598;-78
2022/03/22 06:41:27;;;;;;;15.70;10.13;;;;;;;4.09;56.45;96880.59;6074953;23;20167;-78
2022/03/22 06:43:52;;;;;;;18.03;10.70;;;;;;;4.23;55.92;96878.16;6101145;23;20494;-78
2022/03/22 06:46:18;;;;;;;16.23;11.00;;;;;;;4.42;54.87;96872.09;6127489;23;20161;-78
2022/03/22 06:48:43;;;;;;;17.93;10.43;;;;;;;4.53;54.37;96880.09;6079372;23;20191;-78
2022/03/22 06:51:08;;;;;;;20.10;12.43;;;;;;;4.63;53.69;96881.28;6126289;23;20164;-77
2022/03/22 06:53:34;;;;;;;16.17;11.40;;;;;;;4.74;53.66;96879.00;6128471;23;20165;-77
2022/03/22 06:55:59;;;;;;;16.40;10.80;;;;;;;4.80;53.18;96873.53;6102052;23;20215;-77
2022/03/22 06:58:27;;;;;;;16.70;10.73;;;;;;;4.93;53.07;96872.88;6077876;23;20543;-78
2022/03/22 07:00:55;;;;;;;17.23;11.27;;;;;;;4.99;52.72;96881.13;6101591;23;20159;-78
2022/03/22 07:03:20;;;;;;;17.50;11.03;;;;;;;5.09;52.80;96877.13;6127940;23;20160;-78
2022/03/22 07:05:45;;;;;;;17.63;10.33;;;;;;;5.18;52.31;96878.38;6102550;23;20199;-77
2022/03/22 07:08:12;;;;;;;14.30;10.43;;;;;;;5.23;52.64;96886.72;6127211;23;20182;-78
2022/03/22 07:10:37;;;;;;;15.13;10.97;;;;;;;5.36;52.46;96884.28;6078731;23;20164;-78
2022/03/22 07:13:06;;;;;;;18.47;10.27;;;;;;;5.34;51.64;96884.38;6076675;23;20163;-79
2022/03/22 07:15:35;;;;;;;14.93;10.30;;;;;;;5.51;50.72;96882.63;6078000;23;20526;-78
2022/03/22 07:18:01;;;;;;;15.57;10.33;;;;;;;5.68;51.07;96891.09;6079295;23;20187;-78
2022/03/22 07:20:27;;;;;;;16.67;11.17;;;;;;;5.87;50.77;96893.47;6104359;23;20201;-78
2022/03/22 07:22:52;;;;;;;14.00;10.30;;;;;;;6.05;50.10;96895.97;6102034;23;20152;-78
2022/03/22 07:25:18;;;;;;;14.87;10.40;;;;;;;6.19;48.14;96888.28;6079462;23;20179;-79
2022/03/22 07:27:44;;;;;;;16.60;10.90;;;;;;;6.30;48.66;96891.09;6105903;23;20251;-78
2022/03/22 07:30:12;;;;;;;16.00;11.30;;;;;;;6.38;48.01;96891.47;6105467;23;20179;-78
2022/03/22 07:32:41;;;;;;;16.77;11.17;;;;;;;6.53;47.73;96890.56;6104618;23;20162;-78
2022/03/22 07:35:08;;;;;;;17.43;12.27;;;;;;;6.64;47.20;96895.09;6079652;23;20230;-79
2022/03/22 07:37:34;;;;;;;15.60;10.60;;;;;;;6.73;47.24;96888.56;6078718;23;20235;-78
2022/03/22 07:40:01;;;;;;;19.43;11.13;;;;;;;6.81;46.87;96891.53;6078666;23;20156;-78
2022/03/22 07:42:28;;;;;;;20.70;11.80;;;;;;;6.89;46.91;96893.63;6126541;23;20160;-80
2022/03/22 07:44:58;;;;;;;14.00;11.03;;;;;;;6.87;46.64;96891.13;6101712;23;20179;-79
2022/03/22 07:47:25;;;;;;;16.97;11.33;;;;;;;7.00;46.19;96894.66;6077641;23;20546;-78
2022/03/22 07:55:18;;;;;;;18.23;11.60;;;;;;;7.34;45.25;96897.78;6106671;23;20921;-79
2022/03/22 07:57:44;;;;;;;15.73;11.33;;;;;;;7.43;43.90;96894.63;6079039;23;20156;-80
2022/03/22 08:00:10;;;;;;;14.63;10.70;;;;;;;7.52;43.81;96896.63;6078524;23;20234;-80
2022/03/22 08:02:36;;;;;;;14.50;10.53;;;;;;;7.56;43.49;96897.25;6103006;23;20178;-80
2022/03/22 08:05:04;;;;;;;15.83;10.87;;;;;;;7.64;43.61;96897.59;6103652;23;20226;-78
2022/03/22 08:07:30;;;;;;;16.07;11.37;;;;;;;7.75;42.96;96908.09;6078846;23;20199;-80
2022/03/22 08:09:56;;;;;;;14.90;10.53;;;;;;;7.89;42.46;96913.22;6103564;23;20219;-78
2022/03/22 08:12:21;;;;;;;14.00;11.57;;;;;;;7.96;45.18;96916.25;6105142;23;20156;-80
2022/03/22 08:14:46;;;;;;;20.17;11.47;;;;;;;8.08;46.62;96917.22;6104783;23;20183;-79
2022/03/22 08:17:11;;;;;;;16.57;11.10;;;;;;;8.26;44.74;96915.19;6080979;23;20220;-78
2022/03/22 08:19:37;;;;;;;13.77;10.60;;;;;;;8.34;43.69;96928.47;6079100;23;20606;-78
2022/03/22 08:22:02;;;;;;;16.33;10.80;;;;;;;8.39;41.80;96923.84;6115225;23;20156;-79
2022/03/22 08:24:28;;;;;;;16.03;11.57;;;;;;;8.42;41.91;96918.47;6083383;23;20180;-78
2022/03/22 08:26:53;;;;;;;19.60;11.60;;;;;;;8.46;41.27;96917.34;6078541;23;20167;-79
2022/03/22 08:29:25;;;;;;;16.33;10.97;;;;;;;8.57;41.19;96911.44;6102947;23;20657;-79
2022/03/22 08:31:51;;;;;;;14.57;10.53;;;;;;;8.65;41.99;96907.41;6080124;23;20214;-79
2022/03/22 08:34:16;;;;;;;15.77;11.10;;;;;;;8.76;42.26;96912.72;6102983;23;20184;-78
2022/03/22 08:36:41;;;;;;;12.63;9.80;;;;;;;8.83;41.08;96905.34;6078316;23;20155;-78
2022/03/22 08:39:07;;;;;;;13.17;9.97;;;;;;;8.87;41.18;96912.00;6129525;23;20148;-79
2022/03/22 08:41:32;;;;;;;13.63;10.60;;;;;;;8.89;40.46;96914.47;6104175;23;20160;-79
2022/03/22 08:43:57;;;;;;;11.97;10.10;;;;;;;8.97;40.58;96910.44;6108377;23;20172;-78
2022/03/22 08:46:24;;;;;;;16.87;10.33;;;;;;;9.13;41.64;96918.00;6133790;23;20239;-79
2022/03/22 08:48:51;;;;;;;15.67;11.50;;;;;;;9.05;45.54;96915.91;6109017;23;20176;-78
2022/03/22 08:51:18;;;;;;;15.20;11.13;;;;;;;9.15;45.18;96925.66;6056987;23;20168;-79
2022/03/22 08:53:44;;;;;;;18.13;11.43;;;;;;;8.98;44.65;96925.03;6083308;23;20155;-80
2022/03/22 08:56:10;;;;;;;16.83;11.73;;;;;;;8.99;45.01;96918.91;6109693;23;20167;-79
2022/03/22 08:58:35;;;;;;;13.67;11.00;;;;;;;9.13;43.92;96922.34;6085859;23;20151;-80
2022/03/22 09:01:00;;;;;;;16.80;12.10;;;;;;;9.23;43.64;96923.38;6106610;23;20167;-78
2022/03/22 09:03:27;;;;;;;14.60;11.27;;;;;;;9.32;42.11;96922.72;6104850;23;20152;-78
2022/03/22 09:08:37;;;;;;;16.10;10.97;;;;;;;9.55;40.61;96924.56;6131804;23;20183;-78
2022/03/22 09:11:03;;;;;;;17.10;12.20;;;;;;;9.69;40.23;96920.97;6081503;23;20165;-79
2022/03/22 09:13:28;;;;;;;15.93;10.77;;;;;;;9.80;38.66;96918.44;6080660;23;20160;-78
2022/03/22 09:15:54;;;;;;;14.97;10.40;;;;;;;9.76;37.45;96918.78;6132274;23;20172;-79
2022/03/22 09:18:21;;;;;;;15.40;11.00;;;;;;;9.77;37.59;96918.66;6106041;23;20156;-80
2022/03/22 09:20:46;;;;;;;14.77;11.07;;;;;;;9.91;38.89;96915.94;6080970;23;20226;-78
2022/03/22 09:23:12;;;;;;;15.80;11.50;;;;;;;10.09;39.87;96920.72;6080289;23;20255;-79
2022/03/22 09:25:39;;;;;;;14.63;11.33;;;;;;;10.21;38.56;96917.25;6105392;23;20180;-79
2022/03/22 09:28:05;;;;;;;13.87;11.20;;;;;;;10.19;39.37;96916.53;6080340;23;20211;-80
2022/03/22 09:30:31;;;;;;;14.03;10.57;;;;;;;10.25;39.19;96918.72;6102704;23;20700;-77
2022/03/22 09:32:57;;;;;;;12.67;9.73;;;;;;;10.26;38.95;96919.53;6078774;23;20166;-78
2022/03/22 09:35:23;;;;;;;12.10;9.20;;;;;;;10.46;38.75;96922.31;6077218;23;20176;-79
2022/03/22 09:37:48;;;;;;;13.60;9.70;;;;;;;10.34;36.46;96923.25;6102920;23;20159;-77
2022/03/22 09:40:16;;;;;;;21.23;10.13;;;;;;;10.22;38.62;96918.91;6104353;23;20163;-79
2022/03/22 09:42:45;;;;;;;14.83;9.40;;;;;;;10.30;38.33;96918.38;6103687;23;20160;-78
2022/03/22 09:45:14;;;;;;;14.67;7.33;;;;;;;10.52;35.45;96910.66;6080198;23;20223;-78
2022/03/22 09:47:41;;;;;;;12.77;6.47;;;;;;;10.65;33.96;96915.75;6129465;23;20473;-80
2022/03/22 09:50:07;;;;;;;11.20;7.03;;;;;;;10.60;33.96;96923.06;6106595;23;20191;-80
2022/03/22 09:52:34;;;;;;;14.47;6.43;;;;;;;10.75;33.84;96920.16;6106342;23;20632;-80
2022/03/22 09:54:59;;;;;;;13.03;7.30;;;;;;;10.76;34.59;96918.38;6080740;23;20506;-79
2022/03/22 09:57:25;;;;;;;14.77;8.70;;;;;;;10.82;35.89;96919.69;6106363;23;20207;-79
2022/03/22 09:59:50;;;;;;;14.93;8.63;;;;;;;10.76;36.16;96933.97;6105056;23;20152;-78
2022/03/22 10:02:26;;;;;;;14.47;9.93;;;;;;;10.99;36.65;96925.28;6103837;23;20174;-79
2022/03/22 10:04:52;;;;;;;18.17;11.07;;;;;;;10.88;38.18;96927.88;6105823;23;20172;-79
2022/03/22 10:07:18;;;;;;;17.77;11.77;;;;;;;11.01;38.86;96927.75;6103147;23;20230;-78
2022/03/22 10:09:52;;;;;;;15.60;11.87;;;;;;;11.01;40.42;96925.97;6103123;23;20199;-80
2022/03/22 10:12:37;;;;;;;16.57;11.07;;;;;;;11.20;40.38;96929.75;6078893;23;20248;-78
2022/03/22 10:15:13;;;;;;;21.80;12.63;;;;;;;11.10;38.65;96926.22;6080558;23;20179;-79
2022/03/22 10:17:39;;;;;;;20.30;12.33;;;;;;;11.09;40.96;96925.41;6079710;23;20621;-78
2022/03/22 10:20:07;;;;;;;17.23;11.97;;;;;;;11.08;39.70;96928.94;6077880;23;20159;-80
2022/03/22 10:22:34;;;;;;;14.13;11.07;;;;;;;11.10;40.29;96926.22;6076608;23;20259;-77
2022/03/22 10:25:03;;;;;;;17.63;11.63;;;;;;;11.20;39.58;96921.97;6100968;23;20211;-80
2022/03/22 10:27:34;;;;;;;12.43;10.20;;;;;;;11.47;36.55;96919.81;6077736;23;20156;-80
2022/03/22 10:30:06;;;;;;;17.93;12.73;;;;;;;11.48;38.53;96920.66;6077602;23;20179;-80
2022/03/22 10:32:36;;;;;;;16.37;11.03;;;;;;;11.46;38.42;96917.34;6127824;23;20180;-79
2022/03/22 10:35:14;;;;;;;15.47;9.93;;;;;;;11.53;36.44;96921.97;6126535;23;20178;-80
2022/03/22 10:37:45;;;;;;;18.43;10.53;;;;;;;11.54;35.48;96920.19;6077779;23;20613;-79
2022/03/22 10:40:41;;;;;;;18.60;11.43;;;;;;;11.56;36.21;96919.09;6078050;23;20633;-78
2022/03/22 10:43:27;;;;;;;17.80;11.50;;;;;;;11.41;38.34;96917.72;6128177;23;20241;-80
2022/03/22 10:45:59;;;;;;;17.10;11.83;;;;;;;11.46;38.22;96915.56;6127989;23;20586;-78
2022/03/22 10:48:27;;;;;;;16.33;12.53;;;;;;;11.47;37.98;96919.81;6128995;23;20625;-79
2022/03/22 10:50:54;;;;;;;17.93;10.03;;;;;;;11.42;35.17;96919.38;6103450;23;20167;-79
2022/03/22 10:53:22;;;;;;;14.00;7.67;;;;;;;11.53;32.49;96913.34;6078687;23;20492;-78
2022/03/22 10:55:48;;;;;;;17.03;11.90;;;;;;;11.36;37.02;96917.25;6103900;23;20202;-77
2022/03/22 10:58:14;;;;;;;15.73;10.07;;;;;;;11.54;34.29;96913.19;6102387;23;20171;-80
2022/03/22 11:00:44;;;;;;;15.93;9.97;;;;;;;11.60;35.00;96911.91;6125720;23;20170;-80
2022/03/22 11:03:11;;;;;;;10.70;7.10;;;;;;;11.66;31.52;96913.19;6077973;23;20171;-80
2022/03/22 11:05:38;;;;;;;17.27;10.73;;;;;;;11.56;34.69;96918.28;6099838;23;20203;-78
2022/03/22 11:08:03;;;;;;;14.40;10.40;;;;;;;11.64;33.39;96921.13;6098154;23;20156;-79
2022/03/22 11:10:29;;;;;;;12.57;7.43;;;;;;;11.45;30.45;96915.69;6100752;23;20191;-78
2022/03/22 11:12:55;;;;;;;16.53;11.17;;;;;;;11.62;33.41;96910.84;6125955;23;20594;-78
2022/03/22 11:15:21;;;;;;;17.13;10.70;;;;;;;11.77;33.56;96915.78;6077848;23;20218;-79
2022/03/22 11:17:48;;;;;;;15.13;11.33;;;;;;;11.68;35.63;96911.31;6078889;23;20168;-78
2022/03/22 11:20:15;;;;;;;16.30;11.43;;;;;;;11.86;34.55;96920.28;6102458;23;20140;-78
2022/03/22 11:22:49;;;;;;;25.07;12.73;;;;;;;11.96;34.73;96918.59;6077890;23;20218;-78
2022/03/22 11:25:18;;;;;;;14.67;10.57;;;;;;;12.04;33.55;96918.00;6125514;23;20186;-78
2022/03/22 11:27:54;;;;;;;16.93;11.23;;;;;;;11.96;33.83;96913.41;6103782;23;20191;-79
2022/03/22 11:30:19;;;;;;;15.77;8.80;;;;;;;12.08;31.75;96915.00;6103744;23;20184;-78
2022/03/22 11:35:28;;;;;;;20.43;11.70;;;;;;;12.03;33.71;96908.53;6132589;23;20226;-80
2022/03/22 11:37:59;;;;;;;19.37;11.73;;;;;;;12.18;34.44;96905.50;6125990;23;20156;-80
2022/03/22 11:43:11;;;;;;;16.03;10.17;;;;;;;11.89;33.21;96904.41;6131882;23;20146;-80
2022/03/22 11:45:47;;;;;;;17.33;11.50;;;;;;;12.02;33.71;96905.09;6131141;23;20183;-80
2022/03/22 11:48:12;;;;;;;16.57;12.17;;;;;;;12.17;32.90;96896.03;6105760;23;20179;-79
2022/03/22 11:50:37;;;;;;;16.03;11.33;;;;;;;12.36;33.06;96895.34;6105537;23;20183;-78
2022/03/22 11:53:03;;;;;;;15.97;12.50;;;;;;;12.32;32.86;96893.13;6104701;23;20168;-79
2022/03/22 11:55:28;;;;;;;14.03;10.80;;;;;;;12.34;33.38;96901.66;6106424;23;20184;-80